Time;durP1;ratioP1;P1;durP2;ratioP2;P2;SDS_P1;SDS_P2;PMS_P1;PMS_P2;Temp;Humidity;BMP_temperature;BMP_pressure;BME280_temperature;BME280_humidity;BME280_pressure;Samples;Min_cycle;Max_cycle;Signal;HPM_P1;HPM_P2
2023/06/16 18:45:50;;;;;;;1.05;1.05;;;;;;;;;;7397722;19;20127;-91
2023/06/16 18:48:50;;;;;;;0.63;0.63;;;;;;;;;;7390063;19;20145;-91
2023/06/16 18:54:47;;;;;;;1.02;0.93;;;;;;;;;;7391397;19;20165;-92
2023/06/16 18:58:00;;;;;;;;;;;;;;;;;;;;;
2023/06/16 19:00:35;;;;;;;0.73;0.65;;;;;;;;;;7395430;19;20137;-90
2023/06/16 19:03:39;;;;;;;1.65;1.42;;;;;;;;;;7395411;19;20164;-90
2023/06/16 19:07:20;;;;;;;1.55;1.45;;;;;;;;;;7395660;19;20255;-90
2023/06/16 19:10:31;;;;;;;1.48;1.38;;;;;;;;;;7393050;19;20149;-90
2023/06/16 19:17:03;;;;;;;4.15;1.17;;;;;;;;;;7397332;19;20137;-90
2023/06/16 19:20:10;;;;;;;1.10;1.00;;;;;;;;;;7397480;19;20239;-90
2023/06/16 19:23:22;;;;;;;;;;;;;;;;;;;;;
2023/06/16 19:29:41;;;;;;;1.10;1.10;;;;;;;;;;7398543;19;20148;-91
2023/06/16 19:32:10;;;;;;;2.35;1.27;;;;;;;;;;7399578;19;20200;-90
2023/06/16 19:34:46;;;;;;;0.85;0.82;;;;;;;;;;7402088;19;20566;-90
2023/06/16 19:37:46;;;;;;;1.23;1.17;;;;;;;;;;7399991;19;20585;-89
2023/06/16 19:40:23;;;;;;;1.10;1.08;;;;;;;;;;7400489;19;20144;-89
2023/06/16 19:42:55;;;;;;;1.58;1.48;;;;;;;;;;7399078;19;20190;-89
2023/06/16 19:45:51;;;;;;;1.52;1.42;;;;;;;;;;7396141;19;20226;-89
2023/06/16 19:48:45;;;;;;;1.02;0.98;;;;;;;;;;7396311;19;20200;-90
2023/06/16 19:51:15;;;;;;;1.40;1.30;;;;;;;;;;7391859;19;20148;-89
2023/06/16 19:53:52;;;;;;;1.02;1.00;;;;;;;;;;7393303;19;20169;-89
2023/06/16 19:56:22;;;;;;;0.93;0.93;;;;;;;;;;7400709;19;20172;-88
2023/06/16 19:58:54;;;;;;;0.95;0.95;;;;;;;;;;7401119;19;20152;-88
2023/06/16 20:01:21;;;;;;;0.80;0.80;;;;;;;;;;7397082;19;20173;-89
2023/06/16 20:03:48;;;;;;;1.80;1.70;;;;;;;;;;7398471;19;20659;-89
2023/06/16 20:06:15;;;;;;;1.52;1.42;;;;;;;;;;7401789;19;20136;-89
2023/06/16 20:08:43;;;;;;;0.90;0.90;;;;;;;;;;7396128;19;20157;-88
2023/06/16 20:11:13;;;;;;;1.02;1.02;;;;;;;;;;7393806;19;20469;-88
2023/06/16 20:13:46;;;;;;;1.05;1.02;;;;;;;;;;7397008;19;20180;-88
2023/06/16 20:16:17;;;;;;;0.60;0.60;;;;;;;;;;7398049;19;20149;-88
2023/06/16 20:18:44;;;;;;;0.90;0.88;;;;;;;;;;7399113;19;20140;-88
2023/06/16 20:21:12;;;;;;;0.63;0.63;;;;;;;;;;7397959;19;20136;-88
2023/06/16 20:23:42;;;;;;;0.82;0.77;;;;;;;;;;7394189;19;20259;-88
2023/06/16 20:26:09;;;;;;;0.88;0.88;;;;;;;;;;7394104;19;20137;-88
2023/06/16 20:28:39;;;;;;;2.15;1.73;;;;;;;;;;7395654;19;20137;-88
2023/06/16 20:31:12;;;;;;;1.17;1.17;;;;;;;;;;7397814;19;20145;-89
2023/06/16 20:33:43;;;;;;;1.30;1.17;;;;;;;;;;7393772;19;20172;-89
2023/06/16 20:36:13;;;;;;;1.15;1.05;;;;;;;;;;7397507;19;20162;-88
2023/06/16 20:38:41;;;;;;;1.98;1.40;;;;;;;;;;7383374;19;20157;-88
2023/06/16 20:41:07;;;;;;;1.45;1.35;;;;;;;;;;7396179;19;20452;-91
2023/06/16 20:43:34;;;;;;;1.80;1.27;;;;;;;;;;7389570;19;20172;-91
2023/06/16 20:46:02;;;;;;;0.93;0.93;;;;;;;;;;7395148;19;20144;-90
2023/06/16 20:48:29;;;;;;;1.35;1.27;;;;;;;;;;7396947;19;20598;-90
2023/06/16 20:50:56;;;;;;;1.17;1.08;;;;;;;;;;7389285;19;20152;-91
2023/06/16 20:53:23;;;;;;;1.33;1.25;;;;;;;;;;7396509;19;20157;-91
2023/06/16 20:55:50;;;;;;;0.95;0.95;;;;;;;;;;7397776;19;20192;-90
2023/06/16 20:58:18;;;;;;;1.75;1.55;;;;;;;;;;7398595;19;20156;-92
2023/06/16 21:00:46;;;;;;;1.60;1.20;;;;;;;;;;7396632;19;20620;-91
2023/06/16 21:03:13;;;;;;;1.67;1.58;;;;;;;;;;7396912;19;20156;-91
2023/06/16 21:05:41;;;;;;;1.23;1.15;;;;;;;;;;7397513;19;20140;-91
2023/06/16 21:08:09;;;;;;;1.27;1.15;;;;;;;;;;7396986;19;20212;-92
2023/06/16 21:10:36;;;;;;;1.77;1.63;;;;;;;;;;7398319;19;20168;-91
2023/06/16 21:13:02;;;;;;;1.17;1.10;;;;;;;;;;7395322;19;20168;-91
2023/06/16 21:15:30;;;;;;;1.00;1.00;;;;;;;;;;7401273;19;20148;-91
2023/06/16 21:17:59;;;;;;;0.75;0.75;;;;;;;;;;7400796;19;20155;-91
2023/06/16 21:20:26;;;;;;;1.10;1.10;;;;;;;;;;7398101;19;20141;-89
2023/06/16 21:22:53;;;;;;;1.38;1.27;;;;;;;;;;7397202;19;20176;-91
2023/06/16 21:25:20;;;;;;;1.02;1.02;;;;;;;;;;7399041;19;20145;-91
2023/06/16 21:27:46;;;;;;;1.65;1.55;;;;;;;;;;7399652;19;20548;-91
2023/06/16 21:30:13;;;;;;;0.90;0.90;;;;;;;;;;7396739;19;20153;-91
2023/06/16 21:32:40;;;;;;;0.90;0.90;;;;;;;;;;7404350;19;20152;-91
2023/06/16 21:35:07;;;;;;;1.05;1.05;;;;;;;;;;7401787;19;20562;-90
2023/06/16 21:37:34;;;;;;;0.73;0.73;;;;;;;;;;7398460;19;20141;-93
2023/06/16 21:40:10;;;;;;;1.52;1.42;;;;;;;;;;7403758;19;20121;-91
2023/06/16 21:42:43;;;;;;;1.35;1.25;;;;;;;;;;7402264;19;20281;-91
2023/06/16 21:45:13;;;;;;;1.23;1.23;;;;;;;;;;7405377;19;20208;-90
2023/06/16 21:47:40;;;;;;;1.27;1.20;;;;;;;;;;7404274;19;20594;-91
2023/06/16 21:50:08;;;;;;;0.95;0.95;;;;;;;;;;7400223;19;20650;-91
2023/06/16 21:52:36;;;;;;;1.38;1.27;;;;;;;;;;7396615;19;20176;-91
2023/06/16 21:55:03;;;;;;;0.98;0.98;;;;;;;;;;7402290;19;20152;-92
2023/06/16 21:57:30;;;;;;;1.40;1.30;;;;;;;;;;7398256;19;20597;-91
2023/06/16 21:59:58;;;;;;;1.05;1.05;;;;;;;;;;7399215;19;20144;-91
2023/06/16 22:02:25;;;;;;;1.27;1.17;;;;;;;;;;7400496;19;20153;-92
2023/06/16 22:04:52;;;;;;;0.68;0.68;;;;;;;;;;7397175;19;20125;-92
2023/06/16 22:07:20;;;;;;;1.80;1.38;;;;;;;;;;7397327;19;20163;-92
2023/06/16 22:09:50;;;;;;;1.08;1.02;;;;;;;;;;7398862;19;20144;-91
2023/06/16 22:12:17;;;;;;;1.50;1.45;;;;;;;;;;7394197;19;20188;-90
2023/06/16 22:14:47;;;;;;;0.90;0.90;;;;;;;;;;7396421;19;20516;-92
2023/06/16 22:17:14;;;;;;;1.25;1.17;;;;;;;;;;7391881;19;20177;-91
2023/06/16 22:19:42;;;;;;;1.33;1.25;;;;;;;;;;7393725;19;20157;-91
2023/06/16 22:22:10;;;;;;;1.58;1.48;;;;;;;;;;7393665;19;20163;-91
2023/06/16 22:24:38;;;;;;;1.00;0.98;;;;;;;;;;7397460;19;20148;-91
2023/06/16 22:27:05;;;;;;;2.20;1.20;;;;;;;;;;7397225;19;20133;-91
2023/06/16 22:29:46;;;;;;;0.73;0.73;;;;;;;;;;7397915;19;20244;-92
2023/06/16 22:32:13;;;;;;;1.35;1.25;;;;;;;;;;7393488;19;20506;-91
2023/06/16 22:34:39;;;;;;;1.85;1.65;;;;;;;;;;7393944;19;20131;-91
2023/06/16 22:37:06;;;;;;;1.52;1.42;;;;;;;;;;7393419;19;20147;-91
2023/06/16 22:39:34;;;;;;;1.42;1.35;;;;;;;;;;7395116;19;20128;-91
2023/06/16 22:42:00;;;;;;;1.77;1.50;;;;;;;;;;7392848;19;20485;-92
2023/06/16 22:44:27;;;;;;;0.73;0.73;;;;;;;;;;7392384;19;20141;-92
2023/06/16 22:46:56;;;;;;;1.15;1.15;;;;;;;;;;7392508;19;20149;-92
2023/06/16 22:49:23;;;;;;;0.77;0.77;;;;;;;;;;7391881;19;20148;-91
2023/06/16 22:51:57;;;;;;;0.52;0.52;;;;;;;;;;7391717;19;20153;-92
2023/06/16 22:54:25;;;;;;;1.02;1.02;;;;;;;;;;7391347;19;20664;-92
2023/06/16 22:56:52;;;;;;;1.50;1.23;;;;;;;;;;7392197;19;20148;-92
2023/06/16 22:59:20;;;;;;;0.82;0.82;;;;;;;;;;7392635;19;20141;-92
2023/06/16 23:01:47;;;;;;;1.38;1.27;;;;;;;;;;7391430;19;20140;-92
2023/06/16 23:04:14;;;;;;;1.40;1.30;;;;;;;;;;7392233;19;20160;-92
2023/06/16 23:06:41;;;;;;;1.27;1.17;;;;;;;;;;7392648;19;20451;-92
2023/06/16 23:09:08;;;;;;;1.42;1.33;;;;;;;;;;7392499;19;20139;-92
2023/06/16 23:11:35;;;;;;;1.00;0.93;;;;;;;;;;7390205;19;20236;-92
2023/06/16 23:14:02;;;;;;;1.85;1.23;;;;;;;;;;7389960;19;20153;-92
2023/06/16 23:16:29;;;;;;;1.00;0.98;;;;;;;;;;7392192;19;20130;-91
2023/06/16 23:18:56;;;;;;;1.30;1.30;;;;;;;;;;7393771;19;20141;-91
2023/06/16 23:21:23;;;;;;;1.00;1.00;;;;;;;;;;7395586;19;20626;-92
2023/06/16 23:23:53;;;;;;;0.98;0.93;;;;;;;;;;7390779;19;20173;-93
2023/06/16 23:26:22;;;;;;;1.50;1.40;;;;;;;;;;7392298;19;20148;-89
2023/06/16 23:28:49;;;;;;;1.20;1.05;;;;;;;;;;7390566;19;20125;-89
2023/06/16 23:31:19;;;;;;;1.63;1.52;;;;;;;;;;7392800;19;20162;-89
2023/06/16 23:33:47;;;;;;;0.85;0.85;;;;;;;;;;7389582;19;20164;-89
2023/06/16 23:36:18;;;;;;;1.17;1.00;;;;;;;;;;7390557;19;20606;-91
2023/06/16 23:38:45;;;;;;;2.50;1.30;;;;;;;;;;7388951;19;20133;-90
2023/06/16 23:41:12;;;;;;;0.60;0.60;;;;;;;;;;7390876;19;20129;-90
2023/06/16 23:43:38;;;;;;;1.02;1.02;;;;;;;;;;7388246;19;20670;-90
2023/06/16 23:46:05;;;;;;;1.38;1.33;;;;;;;;;;7389459;19;20220;-90
2023/06/16 23:48:32;;;;;;;1.17;1.08;;;;;;;;;;7390857;19;20132;-90
2023/06/16 23:50:58;;;;;;;0.68;0.68;;;;;;;;;;7388099;19;20137;-90
2023/06/16 23:53:25;;;;;;;0.70;0.70;;;;;;;;;;7389898;19;20180;-90
2023/06/16 23:55:52;;;;;;;0.60;0.60;;;;;;;;;;7391191;19;20489;-90
2023/06/16 23:58:18;;;;;;;1.25;0.88;;;;;;;;;;7390058;19;20220;-91
